Time;durP1;ratioP1;P1;durP2;ratioP2;P2;SDS_P1;SDS_P2;PMS_P1;PMS_P2;Temp;Humidity;BMP_temperature;BMP_pressure;BME280_temperature;BME280_humidity;BME280_pressure;Samples;Min_cycle;Max_cycle;Signal;HPM_P1;HPM_P2
2022/12/01 00:06:29;;;;;;;16.30;13.30;;;;;;;-0.19;91.17;100752.87;433540;1289;142800;-65
2022/12/01 00:16:54;;;;;;;15.60;12.30;;;;;;;-0.14;91.07;100748.21;434648;1289;143357;-65
2022/12/01 00:27:15;;;;;;;16.30;12.90;;;;;;;-0.12;91.16;100742.54;433939;1288;142915;-65
2022/12/01 00:37:43;;;;;;;18.00;14.40;;;;;;;-0.09;91.06;100741.84;434762;1286;143211;-65
2022/12/01 00:48:09;;;;;;;17.70;13.60;;;;;;;-0.06;91.07;100736.34;428382;1279;143876;-64
2022/12/01 00:58:34;;;;;;;14.80;11.30;;;;;;;-0.05;91.14;100725.31;431701;1279;144047;-65
2022/12/01 01:09:00;;;;;;;13.60;11.40;;;;;;;-0.03;91.16;100732.02;432707;1286;145513;-65
2022/12/01 01:19:15;;;;;;;14.10;11.10;;;;;;;0.00;91.12;100727.02;434794;1286;143111;-65
2022/12/01 01:29:42;;;;;;;14.00;11.50;;;;;;;0.03;90.98;100723.05;434696;1286;144934;-65
2022/12/01 01:40:07;;;;;;;16.00;11.60;;;;;;;0.04;90.87;100711.00;434318;1288;207518;-64
2022/12/01 01:50:33;;;;;;;19.00;11.70;;;;;;;0.07;90.94;100709.10;434961;1293;143781;-64
2022/12/01 02:00:55;;;;;;;16.20;10.90;;;;;;;0.10;90.81;100704.45;431688;1286;194727;-64
2022/12/01 02:11:28;;;;;;;13.80;11.60;;;;;;;0.11;90.78;100698.05;434683;1286;143772;-64
2022/12/01 02:22:07;;;;;;;14.10;10.30;;;;;;;0.13;90.73;100705.13;434269;1293;211471;-64
2022/12/01 02:32:43;;;;;;;14.30;10.60;;;;;;;0.16;90.66;100701.48;434651;1288;142772;-64
2022/12/01 02:43:16;;;;;;;10.60;9.50;;;;;;;0.16;90.71;100692.38;434277;1287;213367;-64
2022/12/01 02:53:41;;;;;;;14.40;11.20;;;;;;;0.17;90.78;100694.09;434725;1288;142690;-64
2022/12/01 03:04:33;;;;;;;14.20;11.30;;;;;;;0.20;90.74;100696.48;426452;1285;197736;-64
2022/12/01 03:15:03;;;;;;;17.80;11.90;;;;;;;0.19;90.81;100691.51;434040;1292;144013;-65
2022/12/01 03:25:30;;;;;;;16.20;10.30;;;;;;;0.20;90.94;100686.16;429356;1295;143299;-64
2022/12/01 03:36:01;;;;;;;15.90;12.60;;;;;;;0.17;91.03;100682.89;434092;1292;145384;-65
2022/12/01 03:46:39;;;;;;;17.10;12.10;;;;;;;0.13;91.40;100687.56;434797;1291;143361;-65
2022/12/01 03:57:10;;;;;;;19.60;14.00;;;;;;;0.07;91.80;100684.48;431304;1289;145151;-65
2022/12/01 04:07:36;;;;;;;18.90;14.30;;;;;;;0.04;92.26;100683.80;434008;1295;142552;-65
2022/12/01 04:17:50;;;;;;;21.60;15.50;;;;;;;-0.04;92.80;100680.20;433928;1291;144315;-65
2022/12/01 04:28:15;;;;;;;21.60;15.70;;;;;;;-0.08;93.31;100679.52;434717;1285;143509;-65
2022/12/01 04:38:41;;;;;;;21.30;16.30;;;;;;;-0.13;93.85;100687.63;434880;1286;201761;-65
2022/12/01 04:49:08;;;;;;;21.80;16.10;;;;;;;-0.12;94.06;100696.06;427951;1289;199911;-64
2022/12/01 04:59:33;;;;;;;21.60;17.30;;;;;;;-0.10;94.14;100702.26;434718;1288;144381;-64
2022/12/01 05:09:59;;;;;;;20.40;15.30;;;;;;;-0.09;94.47;100695.02;434264;1285;143190;-64
2022/12/01 05:31:09;;;;;;;23.90;15.80;;;;;;;-0.15;95.07;100695.38;430460;1278;198400;-64
2022/12/01 05:41:34;;;;;;;19.00;15.60;;;;;;;-0.16;95.35;100699.18;429889;1285;142810;-64
2022/12/01 05:52:00;;;;;;;20.40;15.30;;;;;;;-0.14;95.64;100703.80;425296;1292;213966;-64
2022/12/01 06:02:26;;;;;;;21.40;15.60;;;;;;;-0.10;95.85;100694.86;422506;1287;143865;-65
2022/12/01 06:12:52;;;;;;;19.90;14.90;;;;;;;-0.12;95.92;100704.84;427086;1286;210147;-65
2022/12/01 06:23:17;;;;;;;20.70;15.70;;;;;;;-0.13;96.07;100711.38;422137;1279;143277;-65
2022/12/01 06:33:43;;;;;;;16.00;13.30;;;;;;;-0.15;96.19;100713.29;430044;1286;199676;-65
2022/12/01 06:44:08;;;;;;;18.70;13.30;;;;;;;-0.13;96.26;100717.41;431810;1289;144122;-64
2022/12/01 06:54:36;;;;;;;19.10;14.90;;;;;;;-0.11;96.04;100720.33;433802;1289;143352;-64
2022/12/01 07:05:01;;;;;;;17.50;13.10;;;;;;;-0.07;96.12;100726.16;434708;1286;197354;-66
2022/12/01 07:15:27;;;;;;;16.00;13.10;;;;;;;-0.02;96.17;100724.79;434026;1287;186187;-64
2022/12/01 07:26:01;;;;;;;17.20;13.90;;;;;;;0.08;95.99;100729.92;434838;1286;144285;-64
2022/12/01 07:36:26;;;;;;;17.30;13.10;;;;;;;0.20;95.83;100740.75;434006;1285;142974;-64
2022/12/01 07:46:52;;;;;;;16.80;12.30;;;;;;;0.36;95.57;100746.55;434815;1289;144158;-64
2022/12/01 07:57:19;;;;;;;17.00;13.90;;;;;;;0.52;95.30;100747.54;434090;1282;143877;-64
2022/12/01 08:07:43;;;;;;;;;;;;;;;0.60;94.76;100746.30;434754;1293;153890;-64
2022/12/01 08:18:08;;;;;;;23.50;15.00;;;;;;;0.55;94.57;100752.35;429314;1287;148421;-63
2022/12/01 08:28:36;;;;;;;18.70;13.50;;;;;;;0.51;94.26;100760.45;431243;1279;142354;-65
2022/12/01 08:39:01;;;;;;;18.60;12.60;;;;;;;0.51;93.90;100767.02;433960;1287;143496;-64
2022/12/01 08:49:27;;;;;;;18.40;13.10;;;;;;;0.44;93.73;100771.16;434773;1286;144835;-64
2022/12/01 08:59:52;;;;;;;15.40;12.40;;;;;;;0.46;93.86;100774.44;433971;1286;142957;-64
2022/12/01 09:10:18;;;;;;;18.30;12.20;;;;;;;0.52;93.56;100773.21;434757;1286;144680;-67
2022/12/01 09:20:44;;;;;;;15.60;11.70;;;;;;;0.79;93.50;100756.90;424843;1287;142122;-65
2022/12/01 09:31:12;;;;;;;21.50;15.00;;;;;;;1.07;92.83;100742.44;418934;1286;143426;-65
2022/12/01 09:41:40;;;;;;;13.80;10.70;;;;;;;1.54;92.36;100735.37;432952;1288;143742;-64
2022/12/01 09:52:09;;;;;;;13.40;10.20;;;;;;;1.65;91.07;100732.35;434289;1288;198384;-64
2022/12/01 10:02:39;;;;;;;9.80;8.30;;;;;;;1.50;90.42;100728.15;426141;1279;143464;-65
2022/12/01 10:13:16;;;;;;;12.90;10.20;;;;;;;1.32;89.74;100721.73;434349;1279;213172;-64
2022/12/01 10:24:01;;;;;;;15.00;9.80;;;;;;;1.19;90.14;100722.35;431514;1286;143222;-65
2022/12/01 10:34:29;;;;;;;15.70;11.40;;;;;;;1.20;90.34;100712.86;434542;1278;351107;-64
2022/12/01 10:44:57;;;;;;;15.50;12.10;;;;;;;1.21;89.61;100700.93;433943;1287;143307;-65
2022/12/01 10:55:29;;;;;;;19.00;13.30;;;;;;;1.15;89.72;100694.27;434759;1278;144887;-65
2022/12/01 11:05:57;;;;;;;14.70;11.10;;;;;;;1.14;90.10;100683.05;434055;1286;143811;-65
2022/12/01 11:16:38;;;;;;;16.40;12.70;;;;;;;1.18;90.10;100682.33;433334;1281;142760;-64
2022/12/01 11:27:12;;;;;;;16.00;11.90;;;;;;;1.12;89.83;100677.90;418354;1287;142948;-66
2022/12/01 11:37:44;;;;;;;19.80;13.10;;;;;;;0.99;89.90;100678.67;434736;1283;143237;-65
2022/12/01 11:48:33;;;;;;;20.70;16.70;;;;;;;0.85;90.27;100679.80;434059;1286;144216;-65
2022/12/01 11:59:02;;;;;;;22.20;14.60;;;;;;;0.85;90.50;100672.05;434716;1281;143102;-65
2022/12/01 12:09:41;;;;;;;26.20;15.40;;;;;;;0.85;90.63;100672.23;434011;1288;143321;-65
2022/12/01 12:20:35;;;;;;;25.40;16.50;;;;;;;0.77;91.09;100672.96;433315;1288;143347;-65
2022/12/01 12:30:57;;;;;;;17.20;13.00;;;;;;;0.68;90.95;100675.77;434200;1282;144473;-65
2022/12/01 12:41:32;;;;;;;20.80;14.10;;;;;;;0.56;91.03;100674.45;434850;1286;143444;-64
2022/12/01 12:52:02;;;;;;;17.40;14.50;;;;;;;0.49;91.20;100663.12;434149;1288;214167;-64
2022/12/01 13:02:39;;;;;;;21.90;14.70;;;;;;;0.50;91.40;100665.52;434756;1286;143525;-63
2022/12/01 13:13:23;;;;;;;19.30;14.30;;;;;;;0.44;91.45;100667.45;434214;1289;142214;-65
2022/12/01 13:23:50;;;;;;;18.40;13.30;;;;;;;0.37;91.20;100668.34;422103;1281;144011;-64
2022/12/01 13:34:24;;;;;;;15.30;11.10;;;;;;;0.34;91.05;100663.02;434898;1286;143853;-65
2022/12/01 13:44:54;;;;;;;13.80;10.90;;;;;;;0.33;90.47;100663.37;433954;1279;142683;-65
2022/12/01 13:55:27;;;;;;;17.10;13.80;;;;;;;0.35;90.65;100657.50;434740;1272;143029;-63
2022/12/01 14:06:05;;;;;;;17.90;13.50;;;;;;;0.34;90.79;100653.89;434037;1286;144833;-65
2022/12/01 14:16:48;;;;;;;16.50;12.30;;;;;;;0.31;90.77;100664.94;434733;1278;143281;-64
2022/12/01 14:27:15;;;;;;;13.20;10.00;;;;;;;0.31;90.81;100659.59;433171;1293;142982;-64
2022/12/01 14:37:47;;;;;;;9.20;6.50;;;;;;;0.26;89.98;100663.22;434782;1288;144605;-64
2022/12/01 14:48:17;;;;;;;7.10;5.20;;;;;;;0.15;88.81;100663.61;434101;1289;144922;-64
2022/12/01 14:58:52;;;;;;;9.30;6.30;;;;;;;0.15;88.69;100656.56;434806;1285;144468;-65
2022/12/01 15:09:20;;;;;;;14.40;9.20;;;;;;;0.14;88.54;100659.30;434020;1285;142791;-64
2022/12/01 15:20:01;;;;;;;17.40;13.10;;;;;;;0.15;88.90;100647.95;432201;1286;142752;-64
2022/12/01 15:30:27;;;;;;;16.10;12.50;;;;;;;0.15;89.33;100643.64;433704;1287;142703;-64
2022/12/01 15:40:55;;;;;;;24.30;15.30;;;;;;;0.11;89.49;100642.10;434783;1292;144082;-65
2022/12/01 15:51:40;;;;;;;21.40;14.60;;;;;;;0.07;89.67;100644.70;434033;1278;143326;-65
2022/12/01 16:02:24;;;;;;;17.90;12.00;;;;;;;0.02;89.96;100646.10;434757;1294;143140;-65
2022/12/01 16:12:49;;;;;;;16.30;13.20;;;;;;;-0.02;89.88;100644.55;434168;1289;197598;-65
2022/12/01 16:23:24;;;;;;;16.00;11.90;;;;;;;-0.06;89.24;100643.03;426887;1286;142951;-63
2022/12/01 16:33:59;;;;;;;11.20;8.90;;;;;;;-0.10;88.59;100642.52;428987;1280;207743;-64
2022/12/01 16:44:24;;;;;;;15.80;10.50;;;;;;;-0.14;88.73;100641.34;434505;1287;144916;-65
2022/12/01 16:54:53;;;;;;;16.50;12.00;;;;;;;-0.21;88.79;100639.80;429970;1288;197130;-64
2022/12/01 17:05:19;;;;;;;19.50;14.00;;;;;;;-0.23;89.13;100642.73;425405;1287;146717;-64
2022/12/01 17:15:47;;;;;;;15.50;12.40;;;;;;;-0.33;89.17;100637.59;433986;1286;213905;-65
2022/12/01 17:26:15;;;;;;;20.70;14.90;;;;;;;-0.38;89.42;100639.33;434597;1293;142878;-65
2022/12/01 17:36:41;;;;;;;21.80;15.10;;;;;;;-0.34;89.48;100633.30;424377;1287;144996;-66
2022/12/01 17:47:07;;;;;;;29.30;20.20;;;;;;;-0.41;89.70;100632.27;434358;1286;143330;-64
2022/12/01 17:57:32;;;;;;;31.40;20.00;;;;;;;-0.40;89.79;100623.33;433548;1287;143133;-64
2022/12/01 18:07:58;;;;;;;26.10;17.10;;;;;;;-0.36;89.87;100624.02;434652;1295;144192;-66
2022/12/01 18:18:24;;;;;;;24.00;16.30;;;;;;;-0.44;89.96;100626.77;430235;1294;143743;-66
2022/12/01 18:28:54;;;;;;;24.30;15.40;;;;;;;-0.51;90.12;100627.65;420641;1286;142219;-65
2022/12/01 18:39:20;;;;;;;23.40;17.40;;;;;;;-0.52;90.19;100632.46;431993;1284;147473;-65
2022/12/01 18:49:46;;;;;;;24.80;17.50;;;;;;;-0.59;90.05;100633.33;425625;1287;142946;-65
2022/12/01 19:00:14;;;;;;;23.30;16.90;;;;;;;-0.67;90.00;100631.27;430033;1289;142803;-66
2022/12/01 19:10:39;;;;;;;20.50;13.80;;;;;;;-0.84;89.89;100635.75;434475;1288;143448;-64
2022/12/01 19:21:07;;;;;;;21.70;15.70;;;;;;;-0.92;89.86;100639.04;433565;1293;143528;-64
2022/12/01 19:31:33;;;;;;;26.30;19.00;;;;;;;-0.88;90.10;100636.44;434737;1292;144329;-65
2022/12/01 19:41:59;;;;;;;24.20;17.70;;;;;;;-0.93;90.07;100636.63;433966;1295;143407;-65
2022/12/01 19:52:24;;;;;;;21.70;15.00;;;;;;;-1.04;90.02;100638.34;434709;1286;143449;-65
2022/12/01 20:02:50;;;;;;;23.00;15.00;;;;;;;-1.18;89.73;100639.88;433808;1292;144097;-65
2022/12/01 20:13:16;;;;;;;20.50;14.70;;;;;;;-1.29;89.59;100634.35;434477;1290;144557;-65
2022/12/01 20:23:42;;;;;;;19.60;12.90;;;;;;;-1.34;89.71;100631.94;432555;1292;142917;-65
2022/12/01 20:34:11;;;;;;;18.50;12.50;;;;;;;-1.41;89.35;100639.48;434146;1295;201922;-65
2022/12/01 20:44:38;;;;;;;18.10;15.10;;;;;;;-1.45;89.26;100636.20;434599;1295;142771;-63
2022/12/01 20:55:05;;;;;;;17.70;13.20;;;;;;;-1.53;89.25;100634.47;434119;1286;207870;-65
2022/12/01 21:05:31;;;;;;;18.00;12.80;;;;;;;-1.68;89.37;100641.81;429909;1294;143386;-64
2022/12/01 21:15:58;;;;;;;15.80;12.30;;;;;;;-1.64;89.21;100635.30;421370;1294;197130;-65
2022/12/01 21:26:31;;;;;;;12.90;10.60;;;;;;;-1.67;89.08;100635.46;432820;1291;143171;-65
2022/12/01 21:37:00;;;;;;;13.60;11.40;;;;;;;-1.65;89.13;100632.73;433950;1289;213445;-65
2022/12/01 21:47:29;;;;;;;13.70;10.10;;;;;;;-1.61;88.65;100628.45;434354;1289;142446;-64
2022/12/01 21:57:55;;;;;;;14.30;9.90;;;;;;;-1.62;88.78;100626.03;433881;1293;210872;-65
2022/12/01 22:08:26;;;;;;;14.20;10.90;;;;;;;-1.68;88.62;100620.18;434538;1285;143548;-64
2022/12/01 22:18:54;;;;;;;13.00;10.10;;;;;;;-1.67;88.41;100619.15;433959;1287;199280;-65
2022/12/01 22:29:28;;;;;;;13.00;10.00;;;;;;;-1.72;88.60;100621.38;429195;1286;143894;-65
2022/12/01 22:39:56;;;;;;;10.40;8.40;;;;;;;-1.82;88.15;100612.59;434101;1287;209464;-64
2022/12/01 22:50:26;;;;;;;17.70;12.40;;;;;;;-1.87;88.44;100607.07;434595;1286;141966;-65
2022/12/01 23:00:54;;;;;;;12.90;9.80;;;;;;;-1.91;88.52;100607.05;433845;1285;142381;-64
2022/12/01 23:11:22;;;;;;;16.00;10.30;;;;;;;-1.88;88.86;100609.81;425220;1287;142439;-65
2022/12/01 23:21:48;;;;;;;12.30;9.10;;;;;;;-1.90;88.87;100602.61;429118;1286;144381;-64
2022/12/01 23:32:14;;;;;;;16.30;12.10;;;;;;;-1.98;88.98;100593.81;434547;1289;142993;-65
2022/12/01 23:42:40;;;;;;;13.80;11.00;;;;;;;-2.05;89.21;100589.33;428362;1288;141341;-65
2022/12/01 23:53:05;;;;;;;12.10;9.90;;;;;;;-2.11;89.00;100586.74;434380;1280;147188;-65
